Time;durP1;ratioP1;P1;durP2;ratioP2;P2;SDS_P1;SDS_P2;PMS_P1;PMS_P2;Temp;Humidity;BMP_temperature;BMP_pressure;BME280_temperature;BME280_humidity;BME280_pressure;Samples;Min_cycle;Max_cycle;Signal;HPM_P1;HPM_P2
2023/11/05 00:01:39;;;;;;;7.20;4.10;;;;;;;13.46;100.00;98687.22;122533;1109;104284;-75
2023/11/05 00:04:11;;;;;;;5.50;3.30;;;;;;;13.46;100.00;98696.85;122557;1109;104274;-75
2023/11/05 00:06:42;;;;;;;6.13;3.53;;;;;;;13.43;100.00;98703.03;122517;1108;104281;-75
2023/11/05 00:09:13;;;;;;;5.17;3.40;;;;;;;13.42;100.00;98711.81;122478;1107;104447;-75
2023/11/05 00:11:44;;;;;;;7.87;3.50;;;;;;;13.45;100.00;98717.06;122572;1109;104252;-76
2023/11/05 00:14:16;;;;;;;6.40;3.47;;;;;;;13.44;100.00;98717.08;122521;1108;104338;-76
2023/11/05 00:16:47;;;;;;;6.10;3.10;;;;;;;13.44;100.00;98720.58;122549;1109;104344;-76
2023/11/05 00:19:18;;;;;;;6.93;3.37;;;;;;;13.43;100.00;98725.84;122509;1109;104373;-76
2023/11/05 00:21:50;;;;;;;5.00;3.00;;;;;;;13.41;100.00;98730.26;122541;1106;104383;-75
2023/11/05 00:24:21;;;;;;;6.97;3.53;;;;;;;13.41;100.00;98735.53;122502;1108;104262;-76
2023/11/05 00:26:52;;;;;;;4.97;3.23;;;;;;;13.41;100.00;98740.80;122494;1108;104291;-76
2023/11/05 00:29:23;;;;;;;6.50;3.07;;;;;;;13.41;100.00;98756.61;122474;1109;104304;-76
2023/11/05 00:31:54;;;;;;;5.23;3.10;;;;;;;13.43;100.00;98760.10;122541;1109;117932;-76
2023/11/05 00:34:26;;;;;;;6.33;3.23;;;;;;;13.48;100.00;98763.62;122473;1109;104355;-76
2023/11/05 00:36:57;;;;;;;4.03;3.00;;;;;;;13.52;100.00;98770.61;122516;1106;104341;-76
2023/11/05 00:39:28;;;;;;;7.20;3.30;;;;;;;13.57;100.00;98778.49;122456;1108;104368;-76
2023/11/05 00:42:00;;;;;;;5.83;3.47;;;;;;;13.63;100.00;98771.46;122512;1109;104345;-76
2023/11/05 00:44:31;;;;;;;5.30;3.30;;;;;;;13.72;100.00;98762.62;122544;1108;104367;-76
2023/11/05 00:47:03;;;;;;;5.47;3.30;;;;;;;13.77;100.00;98755.55;122541;1109;104429;-76
2023/11/05 00:49:34;;;;;;;6.17;3.30;;;;;;;13.82;100.00;98758.16;122565;1108;104636;-76
2023/11/05 00:52:06;;;;;;;6.60;3.80;;;;;;;13.86;100.00;98759.91;122511;1108;104286;-76
2023/11/05 00:54:37;;;;;;;7.93;3.77;;;;;;;13.91;100.00;98768.66;122504;1106;104361;-76
2023/11/05 00:57:08;;;;;;;5.00;3.50;;;;;;;13.94;100.00;98773.05;122537;1109;104827;-76
2023/11/05 00:59:40;;;;;;;6.13;3.67;;;;;;;13.97;100.00;98783.59;122541;1107;104421;-76
2023/11/05 01:02:11;;;;;;;6.97;3.80;;;;;;;14.00;100.00;98786.20;122596;1109;104389;-76
2023/11/05 01:04:43;;;;;;;7.67;3.90;;;;;;;14.00;100.00;98794.12;122539;1109;104300;-76
2023/11/05 01:07:15;;;;;;;6.30;3.67;;;;;;;14.01;100.00;98802.02;122533;1109;104302;-76
2023/11/05 01:09:46;;;;;;;7.55;4.00;;;;;;;14.03;100.00;98802.88;122473;1108;104344;-76
2023/11/05 01:12:17;;;;;;;5.95;3.75;;;;;;;14.03;100.00;98802.88;122478;1109;104358;-77
2023/11/05 01:14:49;;;;;;;5.85;3.80;;;;;;;14.02;100.00;98798.52;122591;1109;104345;-76
2023/11/05 01:17:20;;;;;;;7.25;3.90;;;;;;;14.03;100.00;98802.01;122512;1109;104332;-76
2023/11/05 01:19:52;;;;;;;7.13;3.90;;;;;;;14.03;100.00;98810.78;122618;1109;104437;-76
2023/11/05 01:22:23;;;;;;;7.73;4.20;;;;;;;14.05;100.00;98807.28;122513;1109;104341;-76
2023/11/05 01:24:54;;;;;;;7.10;4.30;;;;;;;14.03;100.00;98813.42;122498;1108;104489;-76
2023/11/05 01:27:26;;;;;;;9.90;4.85;;;;;;;14.02;100.00;98813.44;122561;1106;104287;-76
2023/11/05 01:29:57;;;;;;;9.60;5.30;;;;;;;14.02;100.00;98816.97;122518;1106;104671;-76
2023/11/05 01:32:28;;;;;;;9.75;5.45;;;;;;;14.02;100.00;98821.34;122516;1109;104332;-76
2023/11/05 01:35:00;;;;;;;11.03;5.77;;;;;;;14.00;100.00;98823.98;122651;1108;104261;-76
2023/11/05 01:37:32;;;;;;;13.47;6.70;;;;;;;13.98;100.00;98816.99;122696;1107;104389;-75
2023/11/05 01:40:03;;;;;;;15.47;7.13;;;;;;;13.96;100.00;98818.73;122510;1108;104300;-75
2023/11/05 01:42:35;;;;;;;15.00;7.00;;;;;;;13.94;100.00;98815.24;122491;1109;104363;-76
2023/11/05 01:45:08;;;;;;;15.10;8.10;;;;;;;13.92;100.00;98819.66;122638;1109;104242;-76
2023/11/05 01:47:40;;;;;;;16.45;7.92;;;;;;;13.91;100.00;98831.08;122620;1109;104296;-75
2023/11/05 01:50:14;;;;;;;19.17;8.97;;;;;;;13.88;100.00;98824.05;122580;1108;104302;-75
2023/11/05 01:52:54;;;;;;;17.73;9.00;;;;;;;13.87;100.00;98829.33;122543;1106;104348;-75
2023/11/05 01:55:26;;;;;;;18.63;9.23;;;;;;;13.84;100.00;98839.02;122597;1108;104274;-76
2023/11/05 01:57:58;;;;;;;16.00;8.60;;;;;;;13.84;100.00;98840.78;122734;1109;104274;-75
2023/11/05 02:00:29;;;;;;;17.47;8.87;;;;;;;13.86;100.00;98846.91;122765;1109;104356;-75
2023/11/05 02:03:01;;;;;;;19.63;9.73;;;;;;;13.86;100.00;98844.28;122722;1109;104329;-75
2023/11/05 02:05:33;;;;;;;17.17;9.27;;;;;;;13.86;100.00;98849.55;122762;1109;104357;-75
2023/11/05 02:08:05;;;;;;;18.20;9.97;;;;;;;13.86;100.00;98853.95;122609;1109;104405;-75
2023/11/05 02:10:36;;;;;;;19.67;10.10;;;;;;;13.84;100.00;98860.10;122720;1106;104379;-76
2023/11/05 02:13:08;;;;;;;18.93;9.80;;;;;;;13.82;100.00;98856.61;122717;1108;104367;-76
2023/11/05 02:15:39;;;;;;;20.15;10.40;;;;;;;13.80;100.00;98862.75;122558;1109;104395;-74
2023/11/05 02:18:10;;;;;;;21.60;10.90;;;;;;;13.76;100.00;98859.27;122592;1109;104379;-75
2023/11/05 02:20:42;;;;;;;19.47;10.23;;;;;;;13.74;100.00;98870.69;122548;1109;104284;-76
2023/11/05 02:23:18;;;;;;;21.17;10.97;;;;;;;13.70;100.00;98875.09;122517;1109;104380;-77
2023/11/05 02:25:49;;;;;;;20.23;10.53;;;;;;;13.67;100.00;98885.65;122568;1107;104182;-75
2023/11/05 02:28:21;;;;;;;20.73;10.67;;;;;;;13.64;100.00;98899.70;122524;1109;104341;-77
2023/11/05 02:30:54;;;;;;;21.50;11.10;;;;;;;13.60;100.00;98897.97;122573;1108;104408;-75
2023/11/05 02:33:26;;;;;;;21.87;11.83;;;;;;;13.57;100.00;98908.52;122490;1108;104302;-77
2023/11/05 02:35:58;;;;;;;20.77;11.83;;;;;;;13.56;100.00;98908.52;122580;1106;104711;-75
2023/11/05 02:38:29;;;;;;;22.13;11.67;;;;;;;13.54;100.00;98910.27;122571;1109;104185;-76
2023/11/05 02:41:00;;;;;;;21.63;11.50;;;;;;;13.50;100.00;98917.30;122541;1109;104294;-75
2023/11/05 02:43:32;;;;;;;23.20;12.43;;;;;;;13.50;100.00;98919.94;122580;1109;105703;-75
2023/11/05 02:46:03;;;;;;;22.07;12.03;;;;;;;13.47;100.00;98927.84;122611;1108;104286;-76
2023/11/05 02:48:35;;;;;;;22.07;11.40;;;;;;;13.42;100.00;98929.62;122612;1108;104303;-75
2023/11/05 02:51:06;;;;;;;22.17;11.77;;;;;;;13.39;100.00;98932.26;122577;1109;104348;-76
2023/11/05 02:53:38;;;;;;;21.37;11.03;;;;;;;13.40;100.00;98944.53;122523;1108;104389;-75
2023/11/05 02:56:11;;;;;;;23.30;11.70;;;;;;;13.37;100.00;98945.43;122590;1108;104380;-76
2023/11/05 02:58:42;;;;;;;22.30;11.90;;;;;;;13.34;100.00;98952.44;122584;1108;104243;-76
2023/11/05 03:01:22;;;;;;;21.60;11.60;;;;;;;13.32;100.00;98955.03;122546;1109;104376;-76
2023/11/05 03:03:53;;;;;;;22.63;12.40;;;;;;;13.30;100.00;98964.70;122525;1109;104286;-76
2023/11/05 03:06:25;;;;;;;22.00;12.13;;;;;;;13.30;100.00;98965.57;122585;1109;104591;-76
2023/11/05 03:08:56;;;;;;;26.10;12.13;;;;;;;13.28;100.00;98964.70;122642;1109;104360;-76
2023/11/05 03:11:27;;;;;;;24.05;12.30;;;;;;;13.25;100.00;98963.84;122577;1109;104284;-75
2023/11/05 03:13:59;;;;;;;21.97;11.67;;;;;;;13.21;100.00;98965.56;122587;1108;104694;-76
2023/11/05 03:16:30;;;;;;;21.47;11.87;;;;;;;13.20;100.00;98970.84;122604;1109;104663;-75
2023/11/05 03:19:01;;;;;;;23.80;12.63;;;;;;;13.15;100.00;98965.59;122541;1108;104492;-76
2023/11/05 03:21:32;;;;;;;22.00;11.80;;;;;;;13.10;100.00;98972.59;122564;1109;104239;-75
2023/11/05 03:24:04;;;;;;;23.40;12.33;;;;;;;13.08;100.00;98969.09;122546;1106;104255;-75
2023/11/05 03:26:36;;;;;;;22.87;12.70;;;;;;;13.07;100.00;98967.32;122532;1108;104364;-76
2023/11/05 03:29:07;;;;;;;21.87;12.27;;;;;;;13.05;100.00;98963.82;122557;1109;104388;-76
2023/11/05 03:31:39;;;;;;;22.40;12.07;;;;;;;13.04;100.00;98962.05;122594;1109;104352;-75
2023/11/05 03:34:10;;;;;;;23.00;12.23;;;;;;;12.99;100.00;98961.17;122535;1109;104367;-75
2023/11/05 03:36:41;;;;;;;25.23;13.13;;;;;;;12.97;100.00;98963.81;122560;1106;104636;-75
2023/11/05 03:39:13;;;;;;;21.27;12.17;;;;;;;12.92;100.00;98969.06;122541;1109;104347;-74
2023/11/05 03:41:44;;;;;;;21.70;11.90;;;;;;;12.91;100.00;98976.96;122599;1109;104382;-75
2023/11/05 03:44:16;;;;;;;21.30;11.53;;;;;;;12.88;100.00;98977.83;122474;1108;104325;-76
2023/11/05 03:46:47;;;;;;;22.70;11.93;;;;;;;12.86;100.00;98979.59;122569;1109;104375;-76
2023/11/05 03:49:19;;;;;;;22.83;11.87;;;;;;;12.86;100.00;98979.59;122590;1109;104703;-75
2023/11/05 03:51:50;;;;;;;22.33;11.97;;;;;;;12.83;100.00;98978.71;122613;1109;104265;-75
2023/11/05 03:54:21;;;;;;;22.50;11.73;;;;;;;12.80;100.00;98987.47;122534;1108;104462;-75
2023/11/05 03:56:53;;;;;;;22.00;11.60;;;;;;;12.79;100.00;98997.98;122538;1109;104291;-76
2023/11/05 03:59:25;;;;;;;20.75;11.05;;;;;;;12.79;100.00;98993.59;122608;1109;104258;-75
2023/11/05 04:01:57;;;;;;;24.07;12.53;;;;;;;12.77;100.00;98983.06;122587;1108;104262;-76
2023/11/05 04:04:30;;;;;;;21.23;11.53;;;;;;;12.76;100.00;98988.32;122529;1109;104284;-77
2023/11/05 04:07:05;;;;;;;19.77;10.90;;;;;;;12.73;100.00;98990.94;122569;1109;104334;-76
2023/11/05 04:09:36;;;;;;;16.80;8.63;;;;;;;12.70;100.00;98993.56;122563;1106;104335;-76
2023/11/05 04:12:09;;;;;;;19.20;9.03;;;;;;;12.69;100.00;99002.36;122611;1107;104290;-75
2023/11/05 04:14:40;;;;;;;18.30;8.90;;;;;;;12.69;100.00;99007.63;122550;1109;104262;-75
2023/11/05 04:17:11;;;;;;;19.40;9.90;;;;;;;12.68;100.00;99014.61;122554;1106;104287;-75
2023/11/05 04:19:42;;;;;;;18.70;9.10;;;;;;;12.67;100.00;99014.61;122604;1109;104296;-75
2023/11/05 04:22:14;;;;;;;17.00;8.50;;;;;;;12.64;100.00;99019.89;122574;1109;104377;-76
2023/11/05 04:24:45;;;;;;;17.00;8.03;;;;;;;12.56;100.00;99018.09;122472;1106;104367;-75
2023/11/05 04:27:16;;;;;;;17.30;7.90;;;;;;;12.53;100.00;99025.11;122515;1109;104366;-76
2023/11/05 04:29:47;;;;;;;15.87;7.77;;;;;;;12.53;100.00;99019.85;122575;1109;104290;-75
2023/11/05 04:32:19;;;;;;;14.80;7.47;;;;;;;12.52;100.00;99021.58;122547;1109;104358;-75
2023/11/05 04:34:50;;;;;;;13.47;7.30;;;;;;;12.53;100.00;99030.38;122521;1109;104365;-75
2023/11/05 04:37:22;;;;;;;17.13;7.77;;;;;;;12.52;100.00;99032.11;122565;1108;104290;-76
2023/11/05 04:39:53;;;;;;;14.90;7.23;;;;;;;12.50;100.00;99043.52;122528;1109;104344;-76
2023/11/05 04:42:25;;;;;;;14.75;6.90;;;;;;;12.49;100.00;99041.75;122576;1109;104261;-75
2023/11/05 04:44:57;;;;;;;14.13;7.10;;;;;;;12.50;100.00;99046.14;122574;1109;104399;-76
2023/11/05 04:47:29;;;;;;;13.67;7.07;;;;;;;12.49;100.00;99047.01;122556;1109;104400;-76
2023/11/05 04:50:00;;;;;;;11.73;6.13;;;;;;;12.47;100.00;99047.00;122600;1108;104268;-76
2023/11/05 04:52:31;;;;;;;12.97;6.20;;;;;;;12.46;100.00;99058.38;122616;1107;104338;-76
2023/11/05 04:55:03;;;;;;;12.83;6.40;;;;;;;12.47;100.00;99059.28;122525;1109;105569;-76
2023/11/05 04:57:34;;;;;;;13.73;6.87;;;;;;;12.49;100.00;99063.66;122569;1109;104370;-76
2023/11/05 05:00:08;;;;;;;13.33;6.67;;;;;;;12.50;100.00;99067.20;122610;1108;104319;-76
2023/11/05 05:02:40;;;;;;;12.83;6.50;;;;;;;12.52;100.00;99073.33;122676;1109;104264;-76
2023/11/05 05:05:11;;;;;;;12.97;6.60;;;;;;;12.50;100.00;99081.22;122532;1109;104277;-76
2023/11/05 05:07:43;;;;;;;12.63;6.50;;;;;;;12.50;100.00;99086.48;122619;1108;104342;-76
2023/11/05 05:10:14;;;;;;;12.13;6.30;;;;;;;12.50;100.00;99089.11;122684;1109;104376;-76
2023/11/05 05:12:45;;;;;;;14.43;6.70;;;;;;;12.51;100.00;99085.63;122558;1109;104345;-76
2023/11/05 05:15:17;;;;;;;12.40;6.33;;;;;;;12.52;100.00;99084.72;122531;1109;104261;-76
2023/11/05 05:17:48;;;;;;;13.65;6.60;;;;;;;12.52;100.00;99079.47;122570;1109;104299;-76
2023/11/05 05:20:20;;;;;;;13.13;6.40;;;;;;;12.51;100.00;99088.25;122627;1107;104261;-76
2023/11/05 05:22:51;;;;;;;12.20;6.60;;;;;;;12.52;100.00;99086.48;122622;1109;104290;-76
2023/11/05 05:25:24;;;;;;;14.03;6.63;;;;;;;12.50;100.00;99099.63;122741;1107;104328;-76
2023/11/05 05:27:55;;;;;;;12.33;6.27;;;;;;;12.49;100.00;99095.23;122948;1108;104261;-75
2023/11/05 05:30:26;;;;;;;13.70;6.30;;;;;;;12.52;100.00;99099.64;122824;1109;104329;-76
2023/11/05 05:32:58;;;;;;;13.77;6.40;;;;;;;12.53;100.00;99096.16;122890;1108;104258;-76
2023/11/05 05:35:30;;;;;;;12.27;5.73;;;;;;;12.54;100.00;99100.52;122787;1108;104338;-76
2023/11/05 05:38:01;;;;;;;11.47;5.70;;;;;;;12.56;100.00;99107.56;122650;1106;107029;-76
2023/11/05 05:40:33;;;;;;;12.55;6.10;;;;;;;12.57;100.00;99113.69;122755;1109;104265;-76
2023/11/05 05:43:04;;;;;;;12.33;5.93;;;;;;;12.58;100.00;99110.20;122767;1108;104332;-76
2023/11/05 05:45:35;;;;;;;12.80;6.15;;;;;;;12.63;100.00;99107.59;122949;1109;104333;-75
2023/11/05 05:48:07;;;;;;;11.30;5.93;;;;;;;12.68;100.00;99113.75;122876;1109;118919;-76
2023/11/05 05:50:38;;;;;;;13.20;6.23;;;;;;;12.73;100.00;99131.34;122834;1109;104255;-76
2023/11/05 05:53:11;;;;;;;13.20;6.33;;;;;;;12.76;100.00;99127.81;122945;1106;104329;-76
2023/11/05 05:55:43;;;;;;;14.10;6.17;;;;;;;12.80;100.00;99126.97;122974;1108;104399;-76
2023/11/05 05:58:16;;;;;;;13.13;6.60;;;;;;;12.86;100.00;99131.40;122924;1109;104223;-76
2023/11/05 06:00:47;;;;;;;10.87;6.10;;;;;;;12.87;100.00;99134.04;122818;1106;104386;-76
2023/11/05 06:03:18;;;;;;;10.90;5.53;;;;;;;12.91;100.00;99129.66;122690;1109;104396;-76
2023/11/05 06:05:50;;;;;;;12.20;5.83;;;;;;;12.97;100.00;99145.48;122675;1108;104258;-77
2023/11/05 06:08:22;;;;;;;12.23;6.33;;;;;;;13.02;100.00;99145.50;122602;1109;104374;-75
2023/11/05 06:10:53;;;;;;;11.23;5.63;;;;;;;13.06;100.00;99152.55;122593;1109;104277;-76
2023/11/05 06:13:25;;;;;;;11.27;5.73;;;;;;;13.13;100.00;99154.31;122650;1109;104348;-75
2023/11/05 06:15:56;;;;;;;11.37;5.87;;;;;;;13.18;100.00;99147.30;122558;1109;104261;-75
2023/11/05 06:18:27;;;;;;;10.07;5.20;;;;;;;13.24;100.00;99154.36;122569;1108;104341;-75
2023/11/05 06:20:59;;;;;;;12.17;6.07;;;;;;;13.26;100.00;99158.77;122549;1109;104265;-76
2023/11/05 06:23:31;;;;;;;13.40;5.50;;;;;;;13.33;100.00;99167.59;122658;1106;104274;-76
2023/11/05 06:26:02;;;;;;;9.13;5.10;;;;;;;13.39;100.00;99175.52;122677;1109;104377;-76
2023/11/05 06:28:33;;;;;;;11.00;5.63;;;;;;;13.41;100.00;99175.52;122667;1109;104296;-77
2023/11/05 06:31:05;;;;;;;9.30;4.87;;;;;;;13.46;100.00;99176.41;122702;1108;104331;-77
2023/11/05 06:33:37;;;;;;;7.90;4.83;;;;;;;13.54;100.00;99173.79;122906;1108;104296;-76
2023/11/05 06:36:10;;;;;;;10.10;5.50;;;;;;;13.58;100.00;99165.89;122821;1109;104246;-76
2023/11/05 06:38:41;;;;;;;9.00;4.80;;;;;;;13.65;100.00;99162.41;122921;1107;104261;-76
2023/11/05 06:41:12;;;;;;;10.30;5.25;;;;;;;13.71;100.00;99169.42;122822;1109;104367;-75
2023/11/05 06:43:44;;;;;;;12.10;5.20;;;;;;;13.71;100.00;99165.92;122934;1109;104370;-76
2023/11/05 06:46:15;;;;;;;10.80;4.93;;;;;;;13.74;100.00;99156.25;122859;1109;104328;-75
2023/11/05 06:48:47;;;;;;;7.80;4.67;;;;;;;13.75;100.00;99149.24;122862;1108;104258;-76
2023/11/05 06:51:18;;;;;;;7.87;4.80;;;;;;;13.77;100.00;99145.70;122794;1108;104734;-76
2023/11/05 06:53:49;;;;;;;9.80;5.00;;;;;;;13.80;100.00;99143.08;122840;1108;104239;-76
2023/11/05 06:56:21;;;;;;;12.27;5.57;;;;;;;13.81;100.00;99150.12;122852;1108;104287;-75
2023/11/05 06:58:52;;;;;;;10.77;5.77;;;;;;;13.82;100.00;99143.98;122692;1107;104271;-75
2023/11/05 07:01:24;;;;;;;11.60;5.33;;;;;;;13.84;100.00;99150.13;122576;1108;104361;-75
2023/11/05 07:03:55;;;;;;;12.93;5.67;;;;;;;13.88;100.00;99145.72;122722;1108;104344;-75
2023/11/05 07:06:27;;;;;;;11.80;5.60;;;;;;;13.92;100.00;99147.49;122682;1108;104332;-76
2023/11/05 07:08:58;;;;;;;8.80;5.10;;;;;;;13.98;100.00;99146.63;122723;1109;104551;-76
2023/11/05 07:11:30;;;;;;;9.55;5.00;;;;;;;14.03;100.00;99142.22;122624;1108;104373;-75
2023/11/05 07:14:01;;;;;;;9.73;5.23;;;;;;;14.06;100.00;99151.91;122702;1109;104360;-75
2023/11/05 07:16:32;;;;;;;9.97;5.17;;;;;;;14.09;100.00;99142.22;122645;1109;104393;-75
2023/11/05 07:19:04;;;;;;;8.30;5.17;;;;;;;14.14;100.00;99144.86;122605;1109;104345;-75
2023/11/05 07:21:35;;;;;;;9.50;5.00;;;;;;;14.17;100.00;99136.94;122655;1106;104291;-75
2023/11/05 07:24:08;;;;;;;8.70;5.23;;;;;;;14.22;100.00;99136.94;122584;1109;104367;-76
2023/11/05 07:26:39;;;;;;;8.37;4.90;;;;;;;14.26;100.00;99130.76;122761;1107;104338;-76
2023/11/05 07:29:12;;;;;;;9.00;5.00;;;;;;;14.29;100.00;99136.03;122620;1109;104331;-77
2023/11/05 07:31:43;;;;;;;8.70;5.17;;;;;;;14.35;100.00;99133.39;122672;1108;104293;-74
2023/11/05 07:34:14;;;;;;;10.87;5.37;;;;;;;14.42;100.00;99139.56;122623;1109;104339;-75
2023/11/05 07:36:46;;;;;;;10.83;5.63;;;;;;;14.47;100.00;99133.38;122741;1108;104293;-75
2023/11/05 07:39:17;;;;;;;10.30;5.50;;;;;;;14.53;100.00;99132.48;122666;1109;104297;-76
2023/11/05 07:41:48;;;;;;;9.30;5.20;;;;;;;14.59;100.00;99136.89;122755;1108;104372;-75
2023/11/05 07:44:20;;;;;;;10.27;5.20;;;;;;;14.64;100.00;99136.01;122670;1106;104284;-75
2023/11/05 07:46:52;;;;;;;7.90;5.20;;;;;;;14.64;100.00;99133.37;122894;1109;104369;-75
2023/11/05 07:49:23;;;;;;;10.53;5.47;;;;;;;14.77;100.00;99134.20;122716;1107;104902;-76
2023/11/05 07:51:54;;;;;;;10.10;5.67;;;;;;;14.85;100.00;99136.81;122833;1108;104258;-76
2023/11/05 07:54:26;;;;;;;9.13;5.80;;;;;;;14.89;100.00;99123.59;122691;1106;104351;-76
2023/11/05 07:56:58;;;;;;;10.77;5.33;;;;;;;14.94;100.00;99126.22;122700;1108;104419;-76
2023/11/05 07:59:30;;;;;;;7.30;4.80;;;;;;;15.02;100.00;99135.02;122637;1107;104287;-76
2023/11/05 08:02:01;;;;;;;9.13;5.27;;;;;;;15.14;100.00;99143.77;122764;1108;104287;-75
2023/11/05 08:04:33;;;;;;;10.93;5.63;;;;;;;15.21;100.00;99138.44;122727;1108;104258;-74
2023/11/05 08:07:04;;;;;;;8.97;5.47;;;;;;;15.30;100.00;99124.28;122908;1108;104188;-76
2023/11/05 08:09:36;;;;;;;9.83;5.53;;;;;;;15.38;100.00;99124.24;122670;1109;104341;-75
2023/11/05 08:12:11;;;;;;;10.20;5.80;;;;;;;15.52;100.00;99126.80;122852;1109;104283;-76
2023/11/05 08:14:42;;;;;;;8.95;5.70;;;;;;;15.63;100.00;99133.79;122997;1108;104182;-76
2023/11/05 08:17:14;;;;;;;10.27;5.30;;;;;;;15.75;100.00;99130.20;123017;1107;104296;-78
2023/11/05 08:19:46;;;;;;;8.97;4.90;;;;;;;15.84;100.00;99123.11;122976;1109;104405;-76
2023/11/05 08:22:17;;;;;;;8.70;5.10;;;;;;;15.85;99.84;99116.91;122969;1109;104370;-76
2023/11/05 08:24:49;;;;;;;7.87;4.90;;;;;;;15.89;99.89;99110.71;122842;1109;104412;-75
2023/11/05 08:27:21;;;;;;;14.00;6.10;;;;;;;15.90;99.88;99104.55;122889;1108;104335;-76
2023/11/05 08:29:52;;;;;;;7.13;4.90;;;;;;;15.95;99.82;99105.38;122971;1108;104267;-76
2023/11/05 08:32:24;;;;;;;9.07;5.17;;;;;;;16.02;98.76;99103.54;123078;1107;104401;-76
2023/11/05 08:34:56;;;;;;;10.23;5.30;;;;;;;16.07;98.87;99110.56;122949;1108;104360;-76
2023/11/05 08:37:27;;;;;;;10.25;5.20;;;;;;;16.09;98.36;99108.77;122779;1106;104310;-76
2023/11/05 08:39:59;;;;;;;10.40;5.17;;;;;;;16.14;98.02;99091.10;122666;1107;104255;-75
2023/11/05 08:42:30;;;;;;;8.10;5.30;;;;;;;16.20;98.01;99089.28;122694;1109;104258;-75
2023/11/05 08:45:01;;;;;;;8.00;5.37;;;;;;;16.24;97.88;99080.42;122660;1109;104272;-76
2023/11/05 08:47:32;;;;;;;7.37;5.00;;;;;;;16.30;97.45;99086.53;122649;1109;104396;-76
2023/11/05 08:50:06;;;;;;;9.83;5.10;;;;;;;16.40;97.32;99084.66;122598;1109;104348;-75
2023/11/05 08:52:36;;;;;;;;;;;;;;;16.43;96.46;99086.41;122577;1108;104277;-75
2023/11/05 08:55:12;;;;;;;8.40;5.40;;;;;;;16.47;96.89;99083.70;122523;1109;104395;-76
2023/11/05 08:57:44;;;;;;;7.65;5.25;;;;;;;16.47;96.46;99083.70;122810;1109;104269;-75
2023/11/05 09:00:16;;;;;;;7.60;4.90;;;;;;;16.49;96.23;99084.55;122708;1109;104424;-75
2023/11/05 09:02:47;;;;;;;7.83;5.27;;;;;;;16.50;94.81;99086.32;122667;1107;104315;-78
2023/11/05 09:05:18;;;;;;;7.83;5.00;;;;;;;16.46;95.22;99081.94;122742;1109;104265;-75
2023/11/05 09:07:49;;;;;;;8.27;5.00;;;;;;;16.48;95.15;99082.79;122658;1108;104389;-75
2023/11/05 09:10:21;;;;;;;9.37;5.00;;;;;;;16.48;94.82;99085.44;122711;1108;104402;-75
2023/11/05 09:12:53;;;;;;;7.63;4.90;;;;;;;16.50;94.57;99088.06;122590;1109;104376;-76
2023/11/05 09:15:24;;;;;;;9.33;4.77;;;;;;;16.53;94.57;99093.33;122747;1108;104239;-77
2023/11/05 09:17:56;;;;;;;7.77;5.10;;;;;;;16.53;94.19;99096.88;122847;1109;104367;-77
2023/11/05 09:20:27;;;;;;;9.70;4.80;;;;;;;16.54;93.27;99095.09;122831;1108;104299;-76
2023/11/05 09:22:59;;;;;;;9.13;4.93;;;;;;;16.52;93.61;99084.52;122747;1107;104258;-75
2023/11/05 09:25:30;;;;;;;10.03;5.20;;;;;;;16.51;92.87;99082.76;122748;1109;104265;-76
2023/11/05 09:28:03;;;;;;;9.20;4.87;;;;;;;16.53;92.64;99077.45;122909;1108;104198;-77
2023/11/05 09:30:34;;;;;;;7.37;4.60;;;;;;;16.52;92.77;99071.28;122729;1108;104294;-75
2023/11/05 09:33:06;;;;;;;8.70;4.80;;;;;;;16.52;92.14;99062.47;122686;1108;104268;-74
2023/11/05 09:35:38;;;;;;;6.73;4.77;;;;;;;16.50;91.68;99059.84;122650;1107;104307;-76
2023/11/05 09:38:09;;;;;;;7.73;4.50;;;;;;;16.48;91.75;99056.31;122681;1109;104351;-76
2023/11/05 09:40:40;;;;;;;10.70;4.83;;;;;;;16.48;91.07;99052.80;122720;1109;104245;-75
2023/11/05 09:43:12;;;;;;;8.00;5.20;;;;;;;16.49;91.28;99055.43;122620;1108;104350;-75
2023/11/05 09:45:46;;;;;;;10.03;4.80;;;;;;;16.42;89.37;99047.58;122702;1109;104348;-75
2023/11/05 09:48:18;;;;;;;8.27;4.93;;;;;;;16.43;90.13;99051.98;122753;1107;104660;-75
2023/11/05 09:50:50;;;;;;;8.65;4.95;;;;;;;16.40;89.17;99050.23;122659;1109;104335;-75
2023/11/05 09:53:23;;;;;;;9.60;4.77;;;;;;;16.38;89.23;99045.84;122831;1108;104255;-77
2023/11/05 09:55:54;;;;;;;7.37;4.65;;;;;;;16.32;88.44;99036.22;122902;1109;104350;-77
2023/11/05 09:58:26;;;;;;;11.87;4.63;;;;;;;16.27;87.93;99032.76;122738;1109;104364;-76
2023/11/05 10:00:57;;;;;;;7.50;3.97;;;;;;;16.24;87.90;99022.20;122578;1106;104762;-75
2023/11/05 10:03:29;;;;;;;7.97;4.27;;;;;;;16.24;87.29;99014.27;122894;1109;104518;-76
2023/11/05 10:06:00;;;;;;;6.50;4.10;;;;;;;16.21;86.21;99001.06;122750;1107;104392;-76
2023/11/05 10:08:34;;;;;;;5.47;3.90;;;;;;;16.24;86.85;99003.67;122887;1108;104366;-78
2023/11/05 10:11:08;;;;;;;7.37;4.20;;;;;;;16.28;86.28;98992.14;123029;1109;104242;-78
2023/11/05 10:13:39;;;;;;;6.07;3.90;;;;;;;16.32;84.69;98993.88;123333;1109;117891;-79
2023/11/05 10:16:12;;;;;;;10.30;4.10;;;;;;;16.37;84.97;98996.47;123083;1106;104453;-80
2023/11/05 10:18:44;;;;;;;6.43;4.00;;;;;;;16.51;85.22;98998.03;123109;1108;104290;-79
2023/11/05 10:21:15;;;;;;;5.47;3.87;;;;;;;16.72;84.50;98996.03;123146;1106;104290;-79
2023/11/05 10:23:54;;;;;;;4.70;3.50;;;;;;;16.92;84.81;98982.51;123021;1108;104310;-78
2023/11/05 10:26:33;;;;;;;7.53;3.60;;;;;;;17.10;84.17;98978.73;123013;1108;104210;-77
2023/11/05 10:29:07;;;;;;;7.27;3.40;;;;;;;17.22;81.46;98969.72;123013;1107;104386;-78
2023/11/05 10:31:37;;;;;;;;;;;;;;;17.20;81.60;98969.75;123283;1109;104238;-78
2023/11/05 10:34:09;;;;;;;4.03;3.20;;;;;;;17.19;80.58;98972.42;123129;1108;110875;-80
2023/11/05 10:36:40;;;;;;;4.37;3.10;;;;;;;17.12;80.00;98963.67;123239;1108;104207;-79
2023/11/05 10:39:12;;;;;;;6.77;3.40;;;;;;;17.07;80.35;98961.09;123150;1109;104290;-79
2023/11/05 10:41:44;;;;;;;5.47;3.50;;;;;;;17.09;80.42;98954.90;123366;1108;104296;-78
2023/11/05 10:44:16;;;;;;;4.97;3.20;;;;;;;17.02;77.96;98948.83;123177;1109;104213;-81
2023/11/05 10:46:48;;;;;;;8.83;3.73;;;;;;;17.00;79.54;98961.20;123280;1109;104409;-81
2023/11/05 10:49:20;;;;;;;5.97;3.30;;;;;;;17.12;79.65;98952.20;123396;1108;104213;-80
2023/11/05 10:51:51;;;;;;;6.27;3.63;;;;;;;17.20;78.64;98948.55;123293;1109;104306;-79
2023/11/05 10:54:23;;;;;;;4.70;3.00;;;;;;;17.33;79.11;98946.56;123167;1108;104645;-78
2023/11/05 10:56:54;;;;;;;4.60;3.13;;;;;;;17.46;78.69;98933.96;123299;1109;104268;-79
2023/11/05 10:59:39;;;;;;;6.33;3.40;;;;;;;17.51;77.83;98940.05;123278;1109;104363;-80
2023/11/05 11:02:08;;;;;;;;;;;;;;;17.56;77.91;98938.21;123280;1109;104177;-77
2023/11/05 11:04:40;;;;;;;5.87;3.70;;;;;;;17.56;77.34;98919.65;122962;1109;119858;-79
2023/11/05 11:07:14;;;;;;;5.13;3.57;;;;;;;17.58;77.09;98916.97;122929;1108;104326;-79
2023/11/05 11:09:46;;;;;;;6.80;3.93;;;;;;;17.54;76.37;98917.91;123219;1109;104293;-78
2023/11/05 11:12:34;;;;;;;6.20;3.93;;;;;;;17.52;77.11;98922.38;123179;1109;104320;-78
2023/11/05 11:15:07;;;;;;;5.53;3.53;;;;;;;17.51;75.86;98894.10;124161;1108;104670;-80
2023/11/05 11:17:41;;;;;;;6.35;3.80;;;;;;;17.46;75.30;98907.45;124499;1106;104188;-80
2023/11/05 11:20:16;;;;;;;6.60;4.10;;;;;;;17.41;74.96;98899.57;124598;1109;104376;-80
2023/11/05 11:22:48;;;;;;;6.23;4.10;;;;;;;17.38;75.24;98889.02;124207;1109;104784;-79
2023/11/05 11:25:20;;;;;;;5.73;4.10;;;;;;;17.37;74.55;98891.70;123757;1109;111747;-80
2023/11/05 11:27:53;;;;;;;8.55;4.70;;;;;;;17.33;74.76;98893.54;123154;1109;104191;-78